Time;durP1;ratioP1;P1;durP2;ratioP2;P2;SDS_P1;SDS_P2;PMS_P1;PMS_P2;Temp;Humidity;BMP_temperature;BMP_pressure;BME280_temperature;BME280_humidity;BME280_pressure;Samples;Min_cycle;Max_cycle;Signal;HPM_P1;HPM_P2
2023/06/30 00:02:06;;;;;;;4.00;3.60;;;26.20;49.90;;;;;;5032956;28;20481;-67
2023/06/30 00:04:32;;;;;;;5.13;4.73;;;26.20;49.90;;;;;;5032980;28;20446;-67
2023/06/30 00:06:59;;;;;;;6.83;4.10;;;26.20;49.90;;;;;;5032967;28;20506;-66
2023/06/30 00:09:25;;;;;;;4.80;4.40;;;26.20;49.90;;;;;;5032897;28;20750;-67
2023/06/30 00:11:53;;;;;;;5.00;4.50;;;26.20;50.00;;;;;;5032874;28;20485;-67
2023/06/30 00:14:20;;;;;;;4.17;3.77;;;26.20;50.10;;;;;;5032776;28;20413;-67
2023/06/30 00:16:46;;;;;;;5.80;4.87;;;26.20;50.10;;;;;;5032711;28;20469;-66
2023/06/30 00:19:12;;;;;;;4.03;3.73;;;26.20;50.00;;;;;;5032731;28;20464;-66
2023/06/30 00:21:42;;;;;;;4.47;4.10;;;26.20;50.00;;;;;;5032687;28;20880;-67
2023/06/30 00:24:13;;;;;;;4.53;4.17;;;26.20;50.30;;;;;;5031360;28;20414;-67
2023/06/30 00:26:39;;;;;;;4.50;4.10;;;26.20;50.40;;;;;;5031226;28;20438;-67
2023/06/30 00:29:05;;;;;;;4.97;4.57;;;26.20;50.40;;;;;;5032544;28;20490;-66
2023/06/30 00:31:31;;;;;;;4.30;3.90;;;26.20;50.40;;;;;;5032804;28;20406;-66
2023/06/30 00:33:57;;;;;;;4.70;4.30;;;26.20;50.40;;;;;;5032505;28;20502;-66
2023/06/30 00:36:23;;;;;;;4.20;3.90;;;26.20;50.30;;;;;;5032439;28;20194;-66
2023/06/30 00:38:50;;;;;;;4.30;4.00;;;26.20;50.50;;;;;;5032648;28;20179;-66
2023/06/30 00:41:16;;;;;;;4.67;4.30;;;26.20;50.40;;;;;;5032348;28;20418;-66
2023/06/30 00:43:41;;;;;;;4.20;3.90;;;26.20;50.50;;;;;;5032325;28;20982;-66
2023/06/30 00:46:12;;;;;;;5.70;4.70;;;26.20;50.60;;;;;;5032253;28;20192;-67
2023/06/30 00:48:37;;;;;;;4.90;4.50;;;26.20;50.50;;;;;;5032723;28;20167;-67
2023/06/30 00:51:04;;;;;;;4.33;4.03;;;26.20;50.60;;;;;;5032084;28;20935;-66
2023/06/30 00:53:30;;;;;;;5.60;4.83;;;26.20;50.50;;;;;;5032213;28;20651;-66
2023/06/30 00:55:56;;;;;;;5.80;5.07;;;26.20;50.50;;;;;;5032112;28;20461;-67
2023/06/30 00:58:21;;;;;;;5.10;4.60;;;26.20;50.60;;;;;;5032161;28;20548;-66
2023/06/30 01:00:47;;;;;;;4.97;4.47;;;26.20;50.60;;;;;;5032106;28;20593;-66
2023/06/30 01:03:38;;;;;;;4.97;4.57;;;26.20;50.70;;;;;;5031966;28;20196;-66
2023/06/30 01:06:09;;;;;;;5.03;4.13;;;26.20;50.70;;;;;;5031838;28;20434;-66
2023/06/30 01:08:48;;;;;;;4.53;4.13;;;26.20;50.60;;;;;;5032065;28;20405;-66
2023/06/30 01:11:14;;;;;;;5.10;4.70;;;26.20;50.70;;;;;;5031988;28;20485;-67
2023/06/30 01:13:42;;;;;;;5.37;4.87;;;26.20;50.70;;;;;;5032033;28;20549;-66
2023/06/30 01:16:09;;;;;;;4.80;4.40;;;26.20;50.70;;;;;;5031937;28;20480;-66
2023/06/30 01:18:36;;;;;;;5.03;4.63;;;26.20;50.80;;;;;;5031360;28;20420;-66
2023/06/30 01:21:04;;;;;;;5.13;4.73;;;26.20;50.80;;;;;;5031877;28;20434;-66
2023/06/30 01:23:40;;;;;;;5.13;4.73;;;26.20;50.90;;;;;;5031781;28;20894;-66
2023/06/30 01:26:06;;;;;;;5.67;5.07;;;26.20;51.00;;;;;;5031730;28;20507;-66
2023/06/30 01:28:33;;;;;;;5.40;4.90;;;26.20;51.00;;;;;;5032101;28;20989;-66
2023/06/30 01:30:58;;;;;;;5.67;5.17;;;26.20;51.00;;;;;;5031796;28;20398;-67
2023/06/30 01:33:26;;;;;;;5.10;4.70;;;26.20;51.00;;;;;;5031747;28;20406;-66
2023/06/30 01:35:52;;;;;;;5.00;4.60;;;26.20;51.10;;;;;;5031910;28;20200;-67
2023/06/30 01:38:17;;;;;;;4.90;4.53;;;26.20;51.10;;;;;;5031737;28;20442;-67
2023/06/30 01:40:45;;;;;;;5.00;4.60;;;26.20;51.20;;;;;;5031709;28;20438;-67
2023/06/30 01:43:11;;;;;;;5.53;4.33;;;26.20;51.20;;;;;;5031876;28;20672;-67
2023/06/30 01:45:38;;;;;;;6.90;5.03;;;26.20;51.20;;;;;;5031559;28;20430;-66
2023/06/30 01:48:04;;;;;;;5.40;4.90;;;26.20;51.20;;;;;;5031647;28;20429;-66
2023/06/30 01:50:31;;;;;;;5.40;4.90;;;26.20;51.30;;;;;;5031491;28;20441;-67
2023/06/30 01:52:58;;;;;;;5.37;4.90;;;26.20;51.30;;;;;;5031577;28;20934;-67
2023/06/30 01:55:24;;;;;;;4.97;4.57;;;26.20;51.30;;;;;;5031764;28;20430;-66
2023/06/30 01:57:49;;;;;;;5.73;4.90;;;26.20;51.40;;;;;;5031526;28;20831;-66
2023/06/30 02:00:15;;;;;;;5.83;5.33;;;26.20;51.40;;;;;;5031516;28;20668;-66
2023/06/30 02:02:41;;;;;;;5.03;4.63;;;26.20;51.40;;;;;;5031360;28;20546;-67
2023/06/30 02:05:07;;;;;;;4.83;4.43;;;26.20;51.40;;;;;;5031397;28;20163;-66
2023/06/30 02:07:33;;;;;;;5.53;5.13;;;26.10;51.40;;;;;;5031446;28;20493;-65
2023/06/30 02:09:58;;;;;;;5.07;4.57;;;26.20;51.50;;;;;;5031472;28;20497;-66
2023/06/30 02:12:24;;;;;;;5.20;4.80;;;26.20;51.50;;;;;;5031427;28;20180;-67
2023/06/30 02:14:50;;;;;;;5.10;4.70;;;26.10;51.50;;;;;;5031425;28;20206;-66
2023/06/30 02:17:15;;;;;;;5.13;4.73;;;26.20;51.50;;;;;;5031333;28;20199;-65
2023/06/30 02:19:41;;;;;;;5.20;4.80;;;26.10;51.50;;;;;;5031392;28;20540;-67
2023/06/30 02:22:07;;;;;;;5.60;5.10;;;26.20;51.60;;;;;;5031477;28;20265;-66
2023/06/30 02:24:33;;;;;;;5.47;5.07;;;26.10;51.50;;;;;;5031336;28;20787;-66
2023/06/30 02:26:58;;;;;;;5.67;5.20;;;26.20;51.60;;;;;;5031233;28;20718;-66
2023/06/30 02:29:24;;;;;;;5.10;4.70;;;26.10;51.60;;;;;;5031262;28;20402;-67
2023/06/30 02:31:49;;;;;;;5.20;4.80;;;26.10;51.60;;;;;;5034767;28;20523;-66
2023/06/30 02:34:15;;;;;;;5.50;5.10;;;26.10;51.70;;;;;;5034729;28;20168;-66
2023/06/30 02:36:41;;;;;;;4.80;4.30;;;26.10;51.80;;;;;;5034954;28;20202;-66
2023/06/30 02:39:06;;;;;;;5.97;5.47;;;26.10;51.70;;;;;;5034699;28;20175;-67
2023/06/30 02:41:32;;;;;;;5.03;4.63;;;26.10;51.70;;;;;;5034620;28;21027;-67
2023/06/30 02:43:57;;;;;;;5.80;5.23;;;26.10;51.70;;;;;;5034525;28;20286;-67
2023/06/30 02:46:23;;;;;;;5.50;5.10;;;26.10;51.70;;;;;;5034494;28;20202;-66
2023/06/30 02:48:48;;;;;;;5.07;4.50;;;26.10;51.70;;;;;;5034447;28;20168;-67
2023/06/30 02:51:14;;;;;;;5.60;5.10;;;26.10;51.70;;;;;;5034445;28;20649;-66
2023/06/30 02:53:39;;;;;;;6.43;5.70;;;26.10;51.60;;;;;;5034418;28;20175;-66
2023/06/30 02:56:05;;;;;;;4.90;4.60;;;26.10;51.60;;;;;;5034572;28;20207;-66
2023/06/30 02:58:31;;;;;;;5.50;5.00;;;26.10;51.70;;;;;;5034294;28;20167;-66
2023/06/30 03:00:57;;;;;;;5.80;5.30;;;26.10;51.70;;;;;;5034219;28;20206;-66
2023/06/30 03:03:22;;;;;;;5.60;5.10;;;26.10;51.70;;;;;;5034390;28;20454;-67
2023/06/30 03:05:48;;;;;;;5.43;5.03;;;26.10;51.80;;;;;;5034097;28;20201;-67
2023/06/30 03:08:14;;;;;;;4.50;4.20;;;26.10;51.80;;;;;;5034136;28;20262;-67
2023/06/30 03:10:39;;;;;;;5.67;5.20;;;26.10;51.80;;;;;;5034086;28;20172;-67
2023/06/30 03:13:05;;;;;;;5.67;5.13;;;26.10;51.70;;;;;;5034299;28;20172;-66
2023/06/30 03:15:30;;;;;;;5.73;5.23;;;26.10;51.80;;;;;;5033879;28;20191;-67
2023/06/30 03:17:56;;;;;;;4.90;4.50;;;26.10;51.80;;;;;;5033947;28;20575;-67
2023/06/30 03:20:22;;;;;;;4.97;4.57;;;26.10;51.80;;;;;;5033846;28;20171;-66
2023/06/30 03:22:48;;;;;;;5.60;5.10;;;26.10;51.90;;;;;;5033692;28;20203;-66
2023/06/30 03:25:14;;;;;;;5.60;5.10;;;26.10;52.00;;;;;;5033820;28;20402;-67
2023/06/30 03:27:40;;;;;;;5.90;5.40;;;26.10;52.00;;;;;;5033751;28;20167;-66
2023/06/30 03:30:06;;;;;;;5.23;4.83;;;26.10;51.90;;;;;;5033711;28;20202;-67
2023/06/30 03:32:32;;;;;;;5.90;5.40;;;26.10;51.90;;;;;;5033943;28;20799;-66
2023/06/30 03:35:03;;;;;;;5.63;5.13;;;26.10;52.50;;;;;;5033591;28;20536;-67
2023/06/30 03:37:30;;;;;;;5.60;5.10;;;26.10;52.00;;;;;;5033569;28;20874;-67
2023/06/30 03:39:56;;;;;;;5.77;5.27;;;26.10;52.10;;;;;;5033779;28;20576;-67
2023/06/30 03:42:21;;;;;;;5.10;4.70;;;26.10;52.20;;;;;;5032959;28;20461;-66
2023/06/30 03:44:47;;;;;;;5.47;4.97;;;26.10;52.10;;;;;;5033713;28;20790;-67
2023/06/30 03:47:13;;;;;;;5.60;5.20;;;26.10;52.20;;;;;;5033330;28;20183;-66
2023/06/30 03:49:38;;;;;;;5.30;4.90;;;26.10;52.20;;;;;;5033196;28;20183;-67
2023/06/30 03:52:04;;;;;;;5.40;5.00;;;26.10;52.10;;;;;;5033238;28;20183;-66
2023/06/30 03:54:30;;;;;;;5.47;5.07;;;26.10;52.10;;;;;;5033483;28;20189;-67
2023/06/30 03:56:57;;;;;;;5.50;5.10;;;26.10;52.10;;;;;;5033415;28;20517;-66
2023/06/30 03:59:22;;;;;;;4.90;4.50;;;26.10;52.20;;;;;;5033139;28;20175;-66
2023/06/30 04:01:48;;;;;;;4.80;4.40;;;26.10;52.20;;;;;;5033131;28;20780;-67
2023/06/30 04:04:14;;;;;;;5.93;5.43;;;26.10;52.20;;;;;;5032989;28;20570;-67
2023/06/30 04:06:40;;;;;;;5.10;4.60;;;26.10;52.20;;;;;;5032890;28;20565;-66
2023/06/30 04:09:05;;;;;;;5.37;4.87;;;26.10;52.20;;;;;;5033223;28;20168;-66
2023/06/30 04:11:31;;;;;;;5.17;4.77;;;26.10;52.30;;;;;;5033261;28;20195;-67
2023/06/30 04:13:59;;;;;;;5.27;4.87;;;26.10;52.20;;;;;;5031640;28;20730;-66
2023/06/30 04:16:25;;;;;;;5.23;4.83;;;26.10;52.20;;;;;;5032828;28;20426;-66
2023/06/30 04:18:52;;;;;;;6.20;5.43;;;26.10;52.30;;;;;;5034423;28;20813;-66
2023/06/30 04:21:18;;;;;;;5.47;5.07;;;26.10;52.30;;;;;;5052739;28;20659;-66
2023/06/30 04:23:44;;;;;;;5.10;4.60;;;26.10;52.30;;;;;;5052599;28;20453;-66
2023/06/30 04:26:09;;;;;;;5.40;4.90;;;26.10;52.30;;;;;;5052498;28;20226;-67
2023/06/30 04:28:35;;;;;;;5.53;5.03;;;26.10;52.20;;;;;;5052478;28;20261;-66
2023/06/30 04:31:03;;;;;;;5.90;5.20;;;26.10;52.20;;;;;;5052591;28;20167;-67
2023/06/30 04:33:28;;;;;;;5.33;4.90;;;26.10;52.30;;;;;;5052789;28;20667;-66
2023/06/30 04:35:54;;;;;;;5.57;5.07;;;26.10;52.20;;;;;;5052366;28;20441;-66
2023/06/30 04:38:20;;;;;;;5.00;4.70;;;26.10;52.30;;;;;;5052664;28;20178;-66
2023/06/30 04:40:49;;;;;;;5.10;4.67;;;26.10;52.30;;;;;;5052551;28;20171;-67
2023/06/30 04:43:15;;;;;;;4.77;4.37;;;26.10;52.30;;;;;;5052180;28;20449;-68
2023/06/30 04:45:40;;;;;;;5.13;4.73;;;26.10;52.30;;;;;;5050908;28;20491;-68
2023/06/30 04:48:10;;;;;;;6.13;5.53;;;26.00;52.20;;;;;;5052498;28;20214;-67
2023/06/30 04:50:36;;;;;;;5.40;5.00;;;26.10;52.40;;;;;;5052031;28;20213;-68
2023/06/30 04:53:01;;;;;;;7.50;6.43;;;26.10;52.30;;;;;;5051392;28;20445;-67
2023/06/30 04:55:27;;;;;;;5.80;5.30;;;26.10;52.40;;;;;;5051309;28;20195;-68
2023/06/30 04:57:56;;;;;;;6.87;5.23;;;26.10;52.40;;;;;;5052085;28;20253;-68
2023/06/30 05:00:22;;;;;;;5.40;5.00;;;26.10;52.40;;;;;;5052042;28;20171;-68
2023/06/30 05:02:49;;;;;;;6.10;5.60;;;26.10;52.40;;;;;;5051965;28;20545;-68
2023/06/30 05:05:15;;;;;;;6.17;5.67;;;26.10;52.40;;;;;;5051977;28;20471;-68
2023/06/30 05:07:41;;;;;;;5.50;5.00;;;26.10;52.30;;;;;;5051973;28;20412;-68
2023/06/30 05:10:07;;;;;;;5.40;5.00;;;26.10;52.30;;;;;;5052127;28;20409;-67
2023/06/30 05:12:32;;;;;;;6.13;5.10;;;26.10;52.40;;;;;;5051851;28;20167;-70
2023/06/30 05:14:58;;;;;;;5.43;4.93;;;26.10;52.40;;;;;;5051856;28;20416;-69
2023/06/30 05:17:23;;;;;;;6.67;5.23;;;26.10;52.40;;;;;;5051760;28;20221;-69
2023/06/30 05:19:49;;;;;;;6.20;5.73;;;26.10;52.40;;;;;;5051807;28;20174;-69
2023/06/30 05:22:15;;;;;;;7.27;5.43;;;26.10;52.40;;;;;;5051722;28;20199;-68
2023/06/30 05:24:41;;;;;;;6.10;5.20;;;26.10;52.50;;;;;;5052054;28;20223;-68
2023/06/30 05:27:06;;;;;;;6.53;5.93;;;26.10;52.50;;;;;;5051996;28;20445;-69
2023/06/30 05:29:33;;;;;;;5.50;5.10;;;26.10;52.50;;;;;;5051796;28;20220;-69
2023/06/30 05:31:58;;;;;;;5.70;5.20;;;26.10;52.50;;;;;;5052009;28;20518;-69
2023/06/30 05:34:24;;;;;;;8.47;5.00;;;26.10;52.50;;;;;;5051747;28;20406;-69
2023/06/30 05:36:50;;;;;;;5.60;5.10;;;26.10;52.50;;;;;;5051523;28;20590;-69
2023/06/30 05:39:15;;;;;;;5.67;5.20;;;26.10;52.50;;;;;;5051629;28;20253;-69
2023/06/30 05:41:41;;;;;;;6.20;5.43;;;26.10;52.50;;;;;;5050262;28;20539;-69
2023/06/30 05:44:07;;;;;;;5.67;5.17;;;26.10;52.60;;;;;;5051499;28;20202;-69
2023/06/30 05:46:39;;;;;;;5.80;5.30;;;26.10;52.50;;;;;;5051471;28;20430;-69
2023/06/30 05:49:06;;;;;;;6.50;5.90;;;26.10;52.50;;;;;;5051438;28;20429;-68
2023/06/30 05:51:35;;;;;;;6.10;5.60;;;26.10;52.60;;;;;;5050308;28;20833;-69
2023/06/30 05:54:05;;;;;;;5.20;4.80;;;26.10;52.60;;;;;;5051514;28;20463;-69
2023/06/30 05:56:31;;;;;;;6.23;5.60;;;26.10;52.50;;;;;;5051414;28;20510;-69
2023/06/30 05:58:57;;;;;;;5.57;5.03;;;26.10;52.60;;;;;;5051481;28;20437;-69
2023/06/30 06:01:23;;;;;;;6.23;5.63;;;26.10;52.50;;;;;;5051477;28;20788;-69
2023/06/30 06:03:49;;;;;;;6.27;5.77;;;26.10;52.50;;;;;;5051573;28;20453;-69
2023/06/30 06:06:15;;;;;;;6.00;5.50;;;26.10;52.50;;;;;;5055222;28;20312;-69
2023/06/30 06:08:44;;;;;;;5.80;4.83;;;26.10;52.50;;;;;;5055244;28;20788;-69
2023/06/30 06:11:10;;;;;;;5.93;5.43;;;26.10;52.50;;;;;;5053841;28;20851;-69
2023/06/30 06:13:37;;;;;;;6.10;5.60;;;26.10;52.50;;;;;;5053775;28;20417;-69
2023/06/30 06:16:04;;;;;;;6.53;5.93;;;26.10;52.50;;;;;;5055281;28;20195;-69
2023/06/30 06:18:30;;;;;;;5.30;4.90;;;26.10;52.50;;;;;;5054963;28;20437;-69
2023/06/30 06:20:56;;;;;;;6.00;5.40;;;26.10;52.50;;;;;;5054975;28;20420;-69
2023/06/30 06:23:22;;;;;;;5.87;5.37;;;26.10;52.50;;;;;;5054869;28;20457;-69
2023/06/30 06:25:48;;;;;;;6.00;5.50;;;26.10;52.50;;;;;;5054813;28;20433;-69
2023/06/30 06:28:14;;;;;;;5.90;5.17;;;26.10;52.50;;;;;;5054795;28;20270;-68
2023/06/30 06:30:39;;;;;;;5.27;4.77;;;26.10;52.50;;;;;;5054815;28;20484;-69
2023/06/30 06:33:05;;;;;;;6.03;5.43;;;26.10;52.40;;;;;;5054743;28;20221;-69
2023/06/30 06:35:31;;;;;;;5.53;5.03;;;26.10;52.40;;;;;;5054613;28;20195;-69
2023/06/30 06:37:57;;;;;;;5.37;4.87;;;26.10;52.30;;;;;;5054704;28;20167;-69
2023/06/30 06:40:22;;;;;;;5.50;5.10;;;26.10;52.40;;;;;;5054856;28;20416;-69
2023/06/30 06:42:48;;;;;;;5.53;4.87;;;26.10;52.30;;;;;;5054519;28;20199;-69
2023/06/30 06:45:14;;;;;;;5.63;5.10;;;26.10;52.20;;;;;;5054425;28;20262;-69
2023/06/30 06:48:17;;;;;;;5.10;4.40;;;26.10;52.20;;;;;;5053193;28;20175;-69
2023/06/30 06:50:43;;;;;;;5.60;5.10;;;26.20;52.30;;;;;;5054320;28;20190;-69
2023/06/30 06:53:08;;;;;;;5.13;4.73;;;26.10;52.30;;;;;;5054285;28;20987;-69
2023/06/30 06:55:35;;;;;;;5.80;5.30;;;26.10;52.30;;;;;;5054254;28;20195;-69
2023/06/30 06:58:00;;;;;;;5.50;5.00;;;26.10;52.20;;;;;;5054285;28;20182;-68
2023/06/30 07:00:26;;;;;;;7.73;5.00;;;26.10;52.20;;;;;;5054494;28;20886;-69
2023/06/30 07:02:53;;;;;;;6.10;5.50;;;26.10;52.20;;;;;;5054023;28;20199;-69
2023/06/30 07:05:18;;;;;;;5.83;5.30;;;26.10;52.20;;;;;;5052709;28;20186;-69
2023/06/30 07:07:44;;;;;;;5.97;5.47;;;26.20;52.20;;;;;;5054413;28;20767;-69
2023/06/30 07:10:11;;;;;;;5.80;5.30;;;26.20;52.20;;;;;;5054404;28;20174;-69
2023/06/30 07:12:37;;;;;;;5.80;5.33;;;26.20;52.20;;;;;;5053968;28;20698;-69
2023/06/30 07:15:03;;;;;;;6.03;5.43;;;26.20;52.30;;;;;;5052505;28;20417;-69
2023/06/30 07:17:28;;;;;;;5.50;5.03;;;26.20;52.20;;;;;;5053203;28;20663;-69
2023/06/30 07:19:54;;;;;;;7.20;5.70;;;26.20;52.20;;;;;;5035798;28;20559;-69
2023/06/30 07:22:21;;;;;;;6.50;5.93;;;26.20;52.20;;;;;;5053970;28;20248;-69
2023/06/30 07:24:47;;;;;;;7.77;5.60;;;26.20;52.30;;;;;;5054051;28;20175;-69
2023/06/30 07:27:13;;;;;;;6.40;5.80;;;26.20;52.20;;;;;;5053679;28;20429;-68
2023/06/30 07:29:38;;;;;;;7.10;5.27;;;26.20;52.20;;;;;;5053935;28;20604;-69
2023/06/30 07:32:04;;;;;;;6.03;5.53;;;26.20;52.80;;;;;;5053774;28;20176;-69
2023/06/30 07:34:33;;;;;;;5.77;5.27;;;26.20;52.30;;;;;;5053619;28;20636;-70
2023/06/30 07:36:59;;;;;;;6.90;6.30;;;26.20;52.20;;;;;;5053775;28;20429;-69
2023/06/30 07:39:25;;;;;;;7.20;6.50;;;26.20;52.30;;;;;;5053908;28;20774;-69
2023/06/30 07:41:51;;;;;;;5.60;5.20;;;26.20;52.30;;;;;;5053727;28;20488;-69
2023/06/30 07:44:17;;;;;;;6.83;6.20;;;26.20;52.40;;;;;;5053449;28;20201;-69
2023/06/30 07:46:43;;;;;;;6.00;5.33;;;26.20;52.40;;;;;;5053702;28;20194;-69
2023/06/30 07:49:08;;;;;;;6.07;5.57;;;26.20;52.40;;;;;;5053692;28;20421;-69
2023/06/30 07:51:34;;;;;;;6.07;5.57;;;26.20;52.40;;;;;;5053317;28;20178;-69
2023/06/30 07:53:59;;;;;;;6.20;5.70;;;26.20;52.40;;;;;;5053550;28;20494;-70
2023/06/30 07:56:25;;;;;;;5.70;5.20;;;26.20;52.50;;;;;;5051855;28;20715;-68
2023/06/30 07:58:50;;;;;;;5.90;5.30;;;26.20;52.50;;;;;;5051908;28;20207;-68
2023/06/30 08:01:16;;;;;;;6.20;5.60;;;26.20;52.50;;;;;;5053306;28;20218;-69
2023/06/30 08:03:42;;;;;;;7.60;6.07;;;26.20;52.50;;;;;;5053180;28;20675;-68
2023/06/30 08:06:07;;;;;;;6.20;5.60;;;26.20;52.40;;;;;;5052974;28;20191;-69
2023/06/30 08:08:33;;;;;;;5.93;5.20;;;26.20;52.40;;;;;;5053123;28;20643;-69
2023/06/30 08:10:59;;;;;;;5.90;4.93;;;26.20;52.50;;;;;;5052916;28;20171;-69
2023/06/30 08:13:25;;;;;;;7.60;5.70;;;26.20;52.40;;;;;;5052935;28;20397;-69
2023/06/30 08:15:51;;;;;;;5.80;5.23;;;26.20;52.50;;;;;;5053023;28;20203;-68
2023/06/30 08:18:17;;;;;;;5.87;5.37;;;26.20;52.50;;;;;;5052820;28;20421;-69
2023/06/30 08:20:42;;;;;;;6.27;5.67;;;26.20;52.50;;;;;;5052825;28;20179;-69
2023/06/30 08:23:10;;;;;;;5.43;5.03;;;26.20;52.40;;;;;;5052663;28;20622;-69
2023/06/30 08:25:35;;;;;;;7.30;6.10;;;26.20;52.50;;;;;;5052681;28;20209;-68
2023/06/30 08:28:01;;;;;;;4.73;4.33;;;26.20;52.50;;;;;;5052680;28;20413;-69
2023/06/30 08:30:27;;;;;;;5.87;5.27;;;26.20;52.40;;;;;;5052891;28;20202;-69
2023/06/30 08:32:54;;;;;;;6.50;5.47;;;26.20;52.50;;;;;;5053011;28;20254;-69
2023/06/30 08:35:19;;;;;;;5.63;4.70;;;26.20;52.50;;;;;;5052447;28;20951;-69
2023/06/30 08:37:45;;;;;;;5.40;4.90;;;26.30;52.60;;;;;;5052650;28;20496;-69
2023/06/30 08:40:11;;;;;;;4.90;4.50;;;26.30;52.60;;;;;;5052857;28;20175;-69
2023/06/30 08:42:43;;;;;;;5.50;5.00;;;26.20;52.50;;;;;;5052492;28;20191;-69
2023/06/30 08:45:10;;;;;;;6.33;5.67;;;26.30;52.50;;;;;;5052194;28;20455;-69
2023/06/30 08:47:37;;;;;;;4.83;4.33;;;26.30;52.60;;;;;;5052231;28;20401;-69
2023/06/30 08:50:04;;;;;;;6.00;5.50;;;26.30;52.60;;;;;;5052138;28;20421;-69
2023/06/30 08:52:30;;;;;;;5.20;4.80;;;26.30;52.50;;;;;;5052305;28;20445;-68
2023/06/30 08:54:55;;;;;;;5.50;4.60;;;26.30;52.50;;;;;;5052143;28;20445;-69
2023/06/30 08:57:21;;;;;;;5.50;5.00;;;26.30;52.40;;;;;;5052043;28;20203;-69
2023/06/30 08:59:47;;;;;;;5.90;5.40;;;26.30;52.40;;;;;;5052374;28;20221;-69
2023/06/30 09:02:13;;;;;;;6.80;5.20;;;26.30;52.90;;;;;;5051883;28;20413;-69
2023/06/30 09:04:42;;;;;;;6.00;5.40;;;26.30;52.30;;;;;;5052066;28;20601;-69
2023/06/30 09:07:15;;;;;;;5.50;5.00;;;26.30;52.30;;;;;;5051892;28;20417;-69
2023/06/30 09:09:44;;;;;;;6.50;5.87;;;26.30;52.40;;;;;;5051954;28;20473;-69
2023/06/30 09:12:10;;;;;;;6.00;5.50;;;26.30;52.40;;;;;;5051937;28;20507;-69
2023/06/30 09:14:38;;;;;;;5.40;4.90;;;26.30;52.40;;;;;;5051932;28;20409;-69
2023/06/30 09:17:05;;;;;;;6.03;5.33;;;26.30;52.40;;;;;;5052110;28;20425;-68
2023/06/30 09:19:30;;;;;;;5.23;4.73;;;26.30;52.40;;;;;;5051799;28;20492;-68
2023/06/30 09:21:57;;;;;;;6.03;5.43;;;26.30;52.40;;;;;;5051736;28;20912;-69
2023/06/30 09:24:23;;;;;;;5.73;5.20;;;26.30;52.40;;;;;;5051823;28;20672;-69
2023/06/30 09:26:49;;;;;;;6.07;5.13;;;26.30;52.40;;;;;;5051707;28;20780;-69
2023/06/30 09:29:18;;;;;;;5.30;4.80;;;26.30;52.40;;;;;;5051758;28;20893;-69
2023/06/30 09:31:44;;;;;;;6.50;5.90;;;26.30;52.40;;;;;;5051642;28;20401;-68
2023/06/30 09:34:11;;;;;;;5.50;5.00;;;26.30;52.30;;;;;;5051682;28;20407;-68
2023/06/30 09:36:47;;;;;;;5.93;5.33;;;26.30;52.30;;;;;;5051659;28;20909;-69
2023/06/30 09:39:13;;;;;;;4.80;4.40;;;26.30;52.30;;;;;;5052770;28;20393;-68
2023/06/30 09:41:41;;;;;;;6.00;5.40;;;26.30;52.30;;;;;;5055743;28;20401;-68
2023/06/30 09:44:12;;;;;;;5.53;5.03;;;26.30;52.30;;;;;;5055636;28;20195;-68
2023/06/30 09:46:50;;;;;;;5.70;5.20;;;26.30;52.20;;;;;;5055514;28;20421;-70
2023/06/30 09:49:42;;;;;;;5.63;4.93;;;26.30;52.30;;;;;;5055691;28;20437;-68
2023/06/30 09:52:08;;;;;;;6.13;5.30;;;26.30;52.20;;;;;;5054774;28;20417;-68
2023/06/30 09:54:36;;;;;;;6.10;5.60;;;26.30;52.20;;;;;;5055183;28;20409;-68
2023/06/30 09:57:05;;;;;;;5.90;5.30;;;26.30;52.20;;;;;;5055121;28;20183;-68
2023/06/30 09:59:31;;;;;;;5.90;5.17;;;26.30;52.20;;;;;;5055402;28;20409;-70
2023/06/30 10:01:58;;;;;;;5.30;4.80;;;26.30;52.20;;;;;;5055449;28;20859;-69
2023/06/30 10:04:25;;;;;;;5.70;5.00;;;26.30;52.20;;;;;;5055289;28;20452;-67
2023/06/30 10:06:54;;;;;;;7.00;6.30;;;26.30;52.20;;;;;;5055250;28;20464;-69
2023/06/30 10:09:22;;;;;;;7.10;5.93;;;26.30;52.20;;;;;;5055222;28;20523;-69
2023/06/30 10:11:52;;;;;;;6.23;5.67;;;26.30;52.20;;;;;;5055080;28;20432;-69
2023/06/30 10:14:27;;;;;;;6.10;5.50;;;26.40;52.20;;;;;;5055323;28;20489;-69
2023/06/30 10:16:57;;;;;;;5.60;5.10;;;26.40;52.30;;;;;;5055004;28;21022;-66
2023/06/30 10:19:23;;;;;;;6.30;5.70;;;26.40;52.20;;;;;;5054943;28;20401;-68
2023/06/30 10:21:49;;;;;;;7.17;5.87;;;26.40;52.20;;;;;;5055015;28;20409;-69
2023/06/30 10:24:18;;;;;;;8.37;6.33;;;26.30;52.20;;;;;;5054866;28;20507;-68
2023/06/30 10:26:46;;;;;;;10.47;8.87;;;26.40;52.20;;;;;;5054696;28;20429;-65
2023/06/30 10:29:12;;;;;;;11.60;8.80;;;26.40;52.20;;;;;;5055017;28;20410;-66
2023/06/30 10:31:37;;;;;;;13.07;10.57;;;26.40;52.20;;;;;;5054829;28;20451;-65
2023/06/30 10:34:05;;;;;;;13.27;10.80;;;26.40;52.20;;;;;;5054749;28;20873;-64
2023/06/30 10:36:31;;;;;;;14.40;11.60;;;26.40;52.10;;;;;;5054562;28;20194;-66
2023/06/30 10:38:57;;;;;;;15.50;11.73;;;26.40;52.20;;;;;;5054883;28;20946;-66
2023/06/30 10:41:23;;;;;;;12.67;11.00;;;26.40;52.20;;;;;;5053246;28;20428;-67
2023/06/30 10:44:07;;;;;;;13.73;11.47;;;26.40;52.10;;;;;;5054228;28;20506;-65
2023/06/30 10:46:53;;;;;;;14.23;12.00;;;26.40;52.20;;;;;;5054370;28;20179;-65
2023/06/30 10:49:19;;;;;;;20.27;12.60;;;26.40;52.20;;;;;;5054588;28;20464;-66
2023/06/30 10:51:49;;;;;;;14.03;11.73;;;26.40;52.20;;;;;;5053092;28;20433;-66
2023/06/30 10:54:24;;;;;;;14.13;11.17;;;26.40;52.20;;;;;;5054411;28;20164;-66
2023/06/30 10:56:51;;;;;;;14.23;10.37;;;26.40;52.10;;;;;;5054724;28;20421;-66
2023/06/30 10:59:23;;;;;;;14.30;10.57;;;26.40;52.10;;;;;;5054451;28;20427;-65
2023/06/30 11:02:12;;;;;;;12.87;10.60;;;26.40;52.20;;;;;;5054373;28;20444;-66
2023/06/30 11:04:39;;;;;;;13.80;10.40;;;26.40;52.10;;;;;;5054112;28;20879;-66
2023/06/30 11:07:06;;;;;;;12.27;10.17;;;26.40;52.10;;;;;;5053849;28;20418;-67
2023/06/30 11:09:47;;;;;;;11.77;9.83;;;26.40;52.10;;;;;;5054217;28;20406;-67
2023/06/30 11:12:25;;;;;;;10.43;9.23;;;26.40;52.20;;;;;;5053880;28;20405;-66
2023/06/30 11:14:58;;;;;;;9.97;8.97;;;26.40;52.20;;;;;;5053978;28;20469;-66
2023/06/30 11:17:47;;;;;;;10.93;9.47;;;26.40;52.10;;;;;;5054134;28;20946;-64
2023/06/30 11:20:14;;;;;;;10.57;9.17;;;26.40;52.20;;;;;;5053682;28;20918;-66
2023/06/30 11:22:40;;;;;;;11.40;10.10;;;26.40;52.20;;;;;;5053687;28;20885;-66
2023/06/30 11:25:13;;;;;;;11.00;9.20;;;26.40;52.20;;;;;;5053555;28;20456;-65
2023/06/30 11:27:39;;;;;;;9.00;7.90;;;26.40;52.20;;;;;;5053978;28;20408;-67
2023/06/30 11:30:06;;;;;;;10.50;9.13;;;26.40;52.20;;;;;;5053597;28;20406;-64
2023/06/30 11:32:33;;;;;;;9.47;8.47;;;26.40;52.20;;;;;;5052185;28;20428;-67
2023/06/30 11:35:01;;;;;;;9.13;8.23;;;26.40;52.20;;;;;;5053463;28;20483;-66
2023/06/30 11:37:27;;;;;;;10.07;9.07;;;26.40;52.20;;;;;;5053327;28;20428;-64
2023/06/30 11:39:53;;;;;;;13.37;9.07;;;26.40;52.10;;;;;;5053237;28;20910;-66
2023/06/30 11:42:20;;;;;;;8.50;7.60;;;26.40;52.10;;;;;;5052007;28;20209;-63
2023/06/30 11:44:48;;;;;;;8.17;6.70;;;26.40;52.10;;;;;;5053798;28;20410;-63
2023/06/30 11:47:14;;;;;;;8.27;7.47;;;26.40;52.10;;;;;;5053430;28;20790;-63
2023/06/30 11:49:40;;;;;;;8.90;8.00;;;26.40;52.10;;;;;;5051845;28;20444;-65
2023/06/30 11:52:06;;;;;;;9.63;7.73;;;26.40;52.20;;;;;;5053544;28;20171;-65
2023/06/30 11:54:33;;;;;;;9.00;8.10;;;26.40;52.10;;;;;;5053131;28;20171;-66
2023/06/30 11:56:59;;;;;;;8.43;7.63;;;26.40;52.10;;;;;;5053069;28;20433;-64
2023/06/30 11:59:25;;;;;;;8.80;7.40;;;26.40;52.10;;;;;;5053176;28;20409;-65
2023/06/30 12:01:54;;;;;;;9.13;7.47;;;26.40;52.10;;;;;;5052750;28;20832;-66
2023/06/30 12:04:26;;;;;;;8.27;7.43;;;26.40;52.10;;;;;;5052562;28;20460;-64
2023/06/30 12:06:55;;;;;;;7.43;6.70;;;26.40;52.20;;;;;;5053169;28;20428;-65
2023/06/30 12:09:22;;;;;;;9.03;8.00;;;26.40;52.10;;;;;;5052937;28;20398;-66
2023/06/30 12:11:49;;;;;;;8.23;7.43;;;26.40;52.20;;;;;;5052923;28;20401;-64
2023/06/30 12:14:16;;;;;;;7.30;6.60;;;26.40;52.10;;;;;;5052811;28;20496;-66
2023/06/30 12:16:48;;;;;;;7.43;6.73;;;26.40;52.00;;;;;;5052742;28;20540;-65
2023/06/30 12:19:14;;;;;;;8.53;6.70;;;26.40;52.20;;;;;;5052800;28;20421;-65
2023/06/30 12:21:59;;;;;;;8.90;6.80;;;26.40;52.10;;;;;;5052782;28;20992;-65
2023/06/30 12:24:30;;;;;;;7.63;6.83;;;26.40;52.10;;;;;;5052664;28;20453;-65
2023/06/30 12:26:55;;;;;;;7.80;7.00;;;26.40;52.20;;;;;;5052962;28;20520;-65
2023/06/30 12:29:23;;;;;;;7.50;6.80;;;26.40;52.10;;;;;;5052640;28;20497;-64
2023/06/30 12:31:48;;;;;;;8.73;7.10;;;26.40;52.20;;;;;;5052842;28;20179;-63
2023/06/30 12:34:33;;;;;;;9.70;7.40;;;26.40;52.20;;;;;;5052802;28;20944;-63
2023/06/30 12:37:00;;;;;;;7.60;6.90;;;26.50;52.20;;;;;;5052389;28;20540;-65
2023/06/30 12:39:25;;;;;;;7.50;6.80;;;26.50;52.10;;;;;;5052381;28;20409;-65
2023/06/30 12:41:51;;;;;;;10.10;7.23;;;26.40;52.10;;;;;;5052631;28;20421;-64
2023/06/30 12:44:17;;;;;;;6.90;6.23;;;26.40;52.10;;;;;;5050906;28;20741;-65
2023/06/30 12:46:43;;;;;;;7.87;7.17;;;26.40;52.00;;;;;;5052253;28;20210;-65